createdAt,value
2023-02-17T00:01:44.670Z,38.92
2023-02-17T00:04:14.932Z,37.67
2023-02-17T00:06:43.810Z,39.83
2023-02-17T00:09:12.602Z,37.10
2023-02-17T00:11:41.442Z,36.55
2023-02-17T00:14:13.185Z,35.95
2023-02-17T00:16:42.497Z,38.42
2023-02-17T00:19:25.242Z,37.17
2023-02-17T00:21:57.710Z,36.85
2023-02-17T00:24:28.121Z,35.13
2023-02-17T00:26:57.270Z,35.20
2023-02-17T00:29:26.102Z,35.88
2023-02-17T00:31:55.487Z,33.97
2023-02-17T00:34:25.391Z,32.85
2023-02-17T00:36:55.724Z,31.98
2023-02-17T00:39:24.561Z,31.63
2023-02-17T00:41:53.601Z,30.92
2023-02-17T00:44:24.814Z,32.58
2023-02-17T00:46:56.681Z,31.20
2023-02-17T00:49:27.588Z,31.70
2023-02-17T00:52:01.133Z,32.20
2023-02-17T00:54:30.324Z,31.02
2023-02-17T00:56:59.101Z,30.92
2023-02-17T00:59:27.867Z,31.15
2023-02-17T01:01:56.914Z,32.28
2023-02-17T01:04:25.829Z,31.52
2023-02-17T01:06:54.755Z,32.60
2023-02-17T01:09:26.953Z,30.75
2023-02-17T01:12:14.948Z,28.13
2023-02-17T01:14:43.812Z,30.23
2023-02-17T01:17:12.631Z,31.20
2023-02-17T01:19:41.437Z,28.85
2023-02-17T01:22:12.253Z,28.90
2023-02-17T01:24:42.771Z,28.27
2023-02-17T01:27:11.727Z,26.98
2023-02-17T01:29:40.803Z,28.40
2023-02-17T01:32:09.704Z,29.60
2023-02-17T01:34:39.630Z,27.58
2023-02-17T01:37:08.528Z,30.42
2023-02-17T01:39:38.299Z,27.98
2023-02-17T01:42:15.776Z,29.23
2023-02-17T01:45:26.216Z,29.00
2023-02-17T01:47:59.948Z,28.80
2023-02-17T01:50:34.489Z,28.05
2023-02-17T01:53:05.324Z,27.50
2023-02-17T01:55:36.285Z,27.65
2023-02-17T01:58:10.403Z,28.40
2023-02-17T02:00:40.167Z,28.77
2023-02-17T02:03:12.267Z,29.67
2023-02-17T02:05:42.792Z,28.05
2023-02-17T02:08:13.692Z,27.20
2023-02-17T02:10:42.602Z,26.77
2023-02-17T02:13:13.174Z,27.67
2023-02-17T02:15:48.668Z,28.90
2023-02-17T02:18:36.954Z,27.65
2023-02-17T02:22:02.605Z,27.13
2023-02-17T02:24:48.262Z,28.23
2023-02-17T02:27:52.388Z,27.58
2023-02-17T02:30:52.446Z,28.58
2023-02-17T02:33:35.469Z,26.88
2023-02-17T02:36:12.176Z,27.83
2023-02-17T02:38:46.017Z,26.85
2023-02-17T02:41:20.894Z,26.52
2023-02-17T02:43:50.470Z,25.73
2023-02-17T02:46:19.440Z,26.45
2023-02-17T02:48:51.415Z,26.30
2023-02-17T02:51:32.606Z,25.98
2023-02-17T02:54:32.237Z,25.77
2023-02-17T02:57:21.007Z,24.75
2023-02-17T03:00:05.880Z,25.60
2023-02-17T03:02:44.409Z,25.55
2023-02-17T03:05:19.976Z,26.08
2023-02-17T03:07:55.345Z,26.20
2023-02-17T03:10:24.421Z,25.75
2023-02-17T03:12:53.712Z,26.73
2023-02-17T03:15:27.263Z,27.55
2023-02-17T03:17:59.061Z,26.80
2023-02-17T03:20:32.733Z,27.88
2023-02-17T03:23:01.749Z,28.90
2023-02-17T03:25:30.985Z,27.52
2023-02-17T03:28:00.154Z,27.92
2023-02-17T03:30:29.057Z,27.17
2023-02-17T03:32:57.898Z,26.33
2023-02-17T03:35:26.802Z,27.42
2023-02-17T03:37:57.068Z,28.10
2023-02-17T03:40:25.851Z,27.50
2023-02-17T03:42:54.728Z,27.65
2023-02-17T03:45:23.547Z,27.38
2023-02-17T03:47:52.534Z,27.58
2023-02-17T03:50:21.495Z,25.80
2023-02-17T03:52:50.629Z,25.20
2023-02-17T03:55:20.854Z,28.13
2023-02-17T03:57:49.870Z,27.92
2023-02-17T04:00:18.920Z,27.77
2023-02-17T04:02:47.840Z,28.05
2023-02-17T04:05:16.840Z,27.20
2023-02-17T04:07:51.351Z,27.77
2023-02-17T04:10:22.913Z,28.50
2023-02-17T04:12:52.076Z,29.27
2023-02-17T04:15:21.088Z,32.50
2023-02-17T04:17:49.954Z,29.13
2023-02-17T04:20:19.042Z,28.60
2023-02-17T04:22:47.846Z,29.50
2023-02-17T04:25:16.690Z,27.75
2023-02-17T04:27:47.131Z,28.27
2023-02-17T04:30:17.006Z,28.00
2023-02-17T04:32:46.016Z,28.30
2023-02-17T04:35:14.779Z,28.73
2023-02-17T04:37:43.605Z,28.75
2023-02-17T04:40:13.710Z,31.92
2023-02-17T04:42:42.631Z,29.85
2023-02-17T04:45:14.021Z,29.48
2023-02-17T04:47:43.011Z,29.52
2023-02-17T04:50:12.839Z,30.13
2023-02-17T04:52:41.660Z,30.92
2023-02-17T04:55:10.912Z,30.17
2023-02-17T04:57:39.839Z,29.42
2023-02-17T05:00:10.222Z,31.35
2023-02-17T05:02:40.496Z,32.63
2023-02-17T05:05:10.413Z,32.60
2023-02-17T05:07:39.296Z,34.78
2023-02-17T05:10:08.860Z,36.22
2023-02-17T05:12:37.984Z,38.53
2023-02-17T05:15:08.000Z,37.08
2023-02-17T05:17:37.138Z,36.30
2023-02-17T05:20:09.233Z,34.92
2023-02-17T05:22:38.421Z,31.83
2023-02-17T05:25:07.859Z,30.67
2023-02-17T05:27:36.724Z,29.67
2023-02-17T05:30:06.535Z,34.58
2023-02-17T05:32:35.430Z,38.08
2023-02-17T05:35:04.261Z,33.72
2023-02-17T05:37:34.654Z,33.88
2023-02-17T05:40:03.836Z,33.70
2023-02-17T05:42:32.960Z,31.92
2023-02-17T05:45:01.804Z,33.80
2023-02-17T05:47:31.744Z,32.08
2023-02-17T05:50:19.157Z,37.67
2023-02-17T05:52:52.460Z,32.63
2023-02-17T05:55:22.408Z,32.78
2023-02-17T05:57:51.197Z,34.08
2023-02-17T06:00:20.146Z,36.80
2023-02-17T06:02:49.315Z,36.50
2023-02-17T06:05:18.445Z,53.20
2023-02-17T06:07:47.283Z,67.47
2023-02-17T06:10:17.686Z,49.17
2023-02-17T06:12:46.590Z,52.07
2023-02-17T06:15:15.538Z,45.87
2023-02-17T06:17:44.508Z,44.37
2023-02-17T06:20:14.235Z,74.60
2023-02-17T06:22:43.569Z,85.30
2023-02-17T06:25:12.620Z,69.57
2023-02-17T06:27:44.268Z,62.47
2023-02-17T06:30:14.964Z,42.93
2023-02-17T06:32:43.852Z,60.03
2023-02-17T06:35:12.664Z,45.43
2023-02-17T06:37:41.535Z,41.20
2023-02-17T06:40:11.895Z,38.87
2023-02-17T06:42:42.338Z,49.70
2023-02-17T06:45:11.728Z,44.33
2023-02-17T06:47:40.563Z,39.37
2023-02-17T06:50:11.945Z,42.00
2023-02-17T06:52:41.047Z,41.43
2023-02-17T06:55:10.566Z,53.80
2023-02-17T06:57:39.413Z,36.50
2023-02-17T07:00:10.907Z,56.67
2023-02-17T07:02:40.154Z,60.73
2023-02-17T07:05:09.972Z,63.33
2023-02-17T07:07:38.783Z,73.83
2023-02-17T07:10:08.969Z,35.20
2023-02-17T07:12:38.078Z,96.07
2023-02-17T07:15:12.047Z,86.93
2023-02-17T07:17:41.342Z,68.73
2023-02-17T07:20:11.623Z,82.67
2023-02-17T07:22:40.743Z,58.83
2023-02-17T07:25:09.945Z,84.40
2023-02-17T07:27:39.002Z,86.53
2023-02-17T07:30:10.776Z,65.20
2023-02-17T07:32:39.698Z,75.47
2023-02-17T07:35:08.683Z,84.33
2023-02-17T07:37:37.604Z,46.87
2023-02-17T07:40:07.838Z,48.37
2023-02-17T07:42:36.772Z,93.87
2023-02-17T07:45:07.344Z,43.23
2023-02-17T07:47:37.602Z,56.47
2023-02-17T07:50:07.623Z,62.27
2023-02-17T07:52:36.617Z,50.33
2023-02-17T07:55:05.740Z,62.97
2023-02-17T07:57:34.535Z,55.57
2023-02-17T08:00:03.767Z,71.13
2023-02-17T08:02:42.904Z,40.67
2023-02-17T08:05:11.951Z,37.57
2023-02-17T08:07:40.759Z,50.63
2023-02-17T08:10:29.991Z,35.20
2023-02-17T08:13:16.091Z,44.50
2023-02-17T08:15:45.004Z,65.03
2023-02-17T08:18:15.235Z,35.07
2023-02-17T08:20:44.087Z,38.13
2023-02-17T08:23:13.962Z,52.13
2023-02-17T08:26:02.065Z,35.63
2023-02-17T08:28:31.109Z,28.63
2023-02-17T08:31:00.103Z,72.93
2023-02-17T08:33:30.474Z,37.27
2023-02-17T08:35:59.294Z,35.93
2023-02-17T08:38:28.247Z,40.33
2023-02-17T08:40:57.048Z,38.67
2023-02-17T08:43:25.987Z,28.03
2023-02-17T08:45:55.049Z,22.83
2023-02-17T08:48:23.902Z,29.63
2023-02-17T08:50:54.401Z,54.07
2023-02-17T08:53:23.442Z,57.43
2023-02-17T08:55:52.262Z,38.53
2023-02-17T08:58:21.108Z,27.67
2023-02-17T09:00:50.461Z,23.10
2023-02-17T09:03:19.405Z,36.40
2023-02-17T09:05:49.971Z,66.57
2023-02-17T09:08:20.963Z,66.00
2023-02-17T09:10:50.001Z,103.63
2023-02-17T09:13:19.431Z,56.73
2023-02-17T09:15:49.643Z,48.83
2023-02-17T09:18:18.676Z,63.97
2023-02-17T09:20:47.459Z,28.37
2023-02-17T09:23:16.753Z,32.57
2023-02-17T09:25:47.474Z,24.90
2023-02-17T09:28:16.536Z,24.10
2023-02-17T09:30:45.553Z,25.87
2023-02-17T09:33:14.583Z,32.33
2023-02-17T09:35:44.621Z,46.37
2023-02-17T09:38:13.510Z,23.97
2023-02-17T09:40:48.715Z,23.27
2023-02-17T09:43:20.329Z,20.93
2023-02-17T09:45:53.029Z,22.00
2023-02-17T09:48:27.140Z,23.27
2023-02-17T09:51:01.718Z,21.77
2023-02-17T09:53:38.082Z,23.43
2023-02-17T09:56:15.456Z,26.27
2023-02-17T09:58:49.092Z,20.13
2023-02-17T10:01:23.252Z,19.80
2023-02-17T10:03:57.094Z,21.50
2023-02-17T10:06:30.728Z,20.30
2023-02-17T10:09:05.294Z,21.07
2023-02-17T10:11:37.730Z,34.03
2023-02-17T10:14:12.557Z,26.07
2023-02-17T10:16:48.989Z,19.13
2023-02-17T10:19:23.537Z,17.73
2023-02-17T10:22:03.969Z,16.77
2023-02-17T10:24:32.935Z,15.83
2023-02-17T10:27:29.496Z,22.53
2023-02-17T10:30:13.923Z,30.10
2023-02-17T10:32:52.931Z,20.47
2023-02-17T10:35:30.424Z,13.10
2023-02-17T10:38:07.683Z,13.93
2023-02-17T10:40:36.722Z,15.50
2023-02-17T10:43:10.605Z,14.20
2023-02-17T10:45:43.276Z,15.07
2023-02-17T10:48:16.992Z,18.87
2023-02-17T10:50:54.394Z,14.13
2023-02-17T10:53:36.738Z,18.60
2023-02-17T10:56:14.638Z,13.30
2023-02-17T10:58:55.637Z,14.77
2023-02-17T11:01:24.697Z,14.83
2023-02-17T11:04:03.105Z,14.00
2023-02-17T11:06:33.893Z,23.10
2023-02-17T11:09:07.935Z,19.53
2023-02-17T11:11:39.254Z,23.13
2023-02-17T11:14:20.709Z,18.60
2023-02-17T11:16:53.915Z,21.70
2023-02-17T11:19:25.968Z,12.87
2023-02-17T11:21:56.978Z,13.13
2023-02-17T11:24:26.424Z,12.80
2023-02-17T11:27:01.033Z,12.40
2023-02-17T11:29:32.855Z,13.93
2023-02-17T11:32:04.985Z,14.53
2023-02-17T11:34:35.159Z,13.70
2023-02-17T11:37:07.500Z,12.93
2023-02-17T11:39:41.082Z,12.70
2023-02-17T11:42:23.465Z,16.07
2023-02-17T11:44:59.319Z,18.83
2023-02-17T11:47:41.063Z,28.23
2023-02-17T11:50:41.319Z,17.07
2023-02-17T11:53:28.273Z,22.17
2023-02-17T11:56:12.417Z,19.23
2023-02-17T11:59:15.337Z,19.77
2023-02-17T12:02:07.978Z,23.40
2023-02-17T12:04:42.950Z,31.27
2023-02-17T12:07:35.858Z,25.10
2023-02-17T12:10:12.315Z,25.33
2023-02-17T12:12:57.266Z,20.73
2023-02-17T12:16:02.099Z,17.00
2023-02-17T12:18:50.193Z,18.37
2023-02-17T12:21:31.504Z,17.40
2023-02-17T12:24:23.063Z,24.63
2023-02-17T12:27:02.231Z,31.60
2023-02-17T12:29:55.966Z,24.40
2023-02-17T12:32:41.962Z,28.77
2023-02-17T12:35:20.773Z,26.40
2023-02-17T12:37:57.692Z,27.17
2023-02-17T12:40:36.226Z,26.73
2023-02-17T12:43:25.730Z,25.77
2023-02-17T12:45:58.487Z,27.50
2023-02-17T12:48:35.317Z,67.07
2023-02-17T12:51:10.784Z,33.47
2023-02-17T12:53:44.725Z,34.47
2023-02-17T12:56:39.854Z,33.53
2023-02-17T12:59:15.919Z,30.47
2023-02-17T13:01:54.314Z,29.77
2023-02-17T13:04:26.822Z,35.50
2023-02-17T13:07:06.661Z,37.00
2023-02-17T13:09:38.425Z,36.83
2023-02-17T13:12:33.849Z,35.13
2023-02-17T13:15:05.420Z,37.90
2023-02-17T13:17:38.445Z,34.47
2023-02-17T13:20:31.735Z,35.07
2023-02-17T13:23:12.036Z,34.53
2023-02-17T13:25:41.707Z,38.97
2023-02-17T13:28:36.074Z,40.80
2023-02-17T13:31:20.236Z,39.03
2023-02-17T13:33:56.187Z,39.33
2023-02-17T13:36:39.192Z,40.83
2023-02-17T13:39:34.946Z,38.80
2023-02-17T13:42:04.202Z,42.70
2023-02-17T13:44:35.609Z,38.33
2023-02-17T13:47:14.214Z,40.27
2023-02-17T13:49:43.308Z,39.83
2023-02-17T13:52:18.551Z,40.97
2023-02-17T13:54:57.568Z,41.30
2023-02-17T13:57:31.567Z,43.27
2023-02-17T14:00:09.354Z,42.23
2023-02-17T14:02:47.323Z,41.53
2023-02-17T14:05:21.640Z,40.47
2023-02-17T14:07:52.945Z,49.20
2023-02-17T14:10:26.464Z,48.07
2023-02-17T14:12:56.360Z,42.17
2023-02-17T14:15:29.652Z,29.33
2023-02-17T14:17:58.804Z,35.53
2023-02-17T14:20:30.651Z,42.93
2023-02-17T14:23:09.035Z,41.23
2023-02-17T14:25:45.119Z,26.00
2023-02-17T14:28:21.778Z,22.57
2023-02-17T14:31:14.476Z,21.73
2023-02-17T14:33:57.644Z,28.93
2023-02-17T14:36:35.519Z,27.97
2023-02-17T14:39:08.183Z,27.87
2023-02-17T14:41:38.935Z,26.37
2023-02-17T14:44:10.100Z,19.93
2023-02-17T14:46:42.528Z,19.80
2023-02-17T14:49:11.550Z,42.73
2023-02-17T14:51:41.879Z,21.70
2023-02-17T14:54:16.193Z,24.10
2023-02-17T14:56:52.949Z,42.93
2023-02-17T14:59:21.876Z,48.73
2023-02-17T15:01:50.707Z,42.53
2023-02-17T15:04:19.631Z,50.00
2023-02-17T15:06:50.923Z,50.77
2023-02-17T15:09:22.646Z,46.63
2023-02-17T15:11:54.112Z,46.53
2023-02-17T15:14:23.387Z,46.40
2023-02-17T15:16:56.750Z,46.83
2023-02-17T15:19:29.930Z,48.80
2023-02-17T15:22:01.575Z,57.23
2023-02-17T15:24:33.605Z,60.17
2023-02-17T15:27:05.492Z,61.33
2023-02-17T15:29:35.938Z,58.53
2023-02-17T15:32:12.319Z,70.67
2023-02-17T15:34:47.001Z,54.63
2023-02-17T15:37:16.228Z,74.87
2023-02-17T15:39:45.066Z,103.03
2023-02-17T15:42:16.739Z,77.57
2023-02-17T15:44:49.439Z,87.90
2023-02-17T15:47:20.764Z,87.37
2023-02-17T15:49:49.997Z,92.30
2023-02-17T15:52:18.888Z,96.10
2023-02-17T15:54:48.556Z,109.57
2023-02-17T15:57:41.249Z,101.80
2023-02-17T16:00:20.043Z,104.17
2023-02-17T16:02:49.408Z,111.67
2023-02-17T16:05:23.502Z,104.83
2023-02-17T16:07:53.344Z,105.13
2023-02-17T16:10:24.664Z,108.03
2023-02-17T16:12:58.444Z,108.87
2023-02-17T16:15:46.255Z,89.07
2023-02-17T16:18:22.627Z,76.03
2023-02-17T16:20:53.779Z,78.63
2023-02-17T16:23:22.884Z,80.33
2023-02-17T16:25:52.281Z,77.17
2023-02-17T16:28:24.374Z,80.70
2023-02-17T16:30:53.727Z,86.07
2023-02-17T16:33:22.632Z,59.37
2023-02-17T16:35:52.826Z,54.67
2023-02-17T16:38:39.992Z,56.57
2023-02-17T16:41:09.518Z,52.57
2023-02-17T16:43:40.053Z,52.17
2023-02-17T16:46:17.895Z,54.47
2023-02-17T16:48:46.900Z,55.60
2023-02-17T16:51:16.218Z,66.47
2023-02-17T16:53:45.077Z,61.90
2023-02-17T16:56:20.183Z,69.30
2023-02-17T16:58:50.721Z,92.03
2023-02-17T17:01:19.658Z,75.40
2023-02-17T17:03:48.515Z,77.07
2023-02-17T17:06:22.125Z,61.00
2023-02-17T17:08:51.397Z,59.33
2023-02-17T17:11:22.268Z,59.33
2023-02-17T17:13:53.544Z,69.03
2023-02-17T17:16:26.183Z,66.37
2023-02-17T17:18:55.710Z,68.60
2023-02-17T17:21:24.554Z,83.33
2023-02-17T17:23:53.471Z,98.13
2023-02-17T17:26:27.603Z,115.13
2023-02-17T17:28:58.252Z,111.80
2023-02-17T17:31:28.646Z,89.80
2023-02-17T17:33:57.820Z,83.73
2023-02-17T17:36:32.064Z,74.27
2023-02-17T17:39:03.531Z,68.47
2023-02-17T17:41:33.504Z,62.63
2023-02-17T17:44:04.474Z,59.83
2023-02-17T17:46:35.822Z,56.10
2023-02-17T17:49:06.648Z,54.73
2023-02-17T17:51:35.874Z,51.80
2023-02-17T17:54:06.653Z,49.23
2023-02-17T17:56:39.345Z,49.70
2023-02-17T17:59:10.222Z,48.17
2023-02-17T18:01:40.651Z,48.37
2023-02-17T18:04:10.793Z,53.07
2023-02-17T18:06:43.474Z,55.07
2023-02-17T18:09:30.588Z,53.23
2023-02-17T18:12:04.358Z,54.57
2023-02-17T18:14:39.256Z,62.17
2023-02-17T18:17:11.225Z,63.40
2023-02-17T18:19:41.347Z,61.83
2023-02-17T18:22:10.928Z,64.73
2023-02-17T18:24:43.145Z,63.07
2023-02-17T18:27:13.729Z,59.50
2023-02-17T18:29:44.675Z,57.33
2023-02-17T18:32:14.219Z,56.00
2023-02-17T18:34:43.239Z,70.60
2023-02-17T18:37:12.682Z,75.70
2023-02-17T18:39:42.336Z,70.47
2023-02-17T18:42:12.863Z,77.23
2023-02-17T18:44:43.309Z,78.23
2023-02-17T18:47:13.995Z,66.07
2023-02-17T18:49:44.590Z,56.43
2023-02-17T18:52:15.551Z,48.70
2023-02-17T18:54:45.817Z,47.30
2023-02-17T18:57:15.614Z,48.40
2023-02-17T18:59:46.185Z,50.87
2023-02-17T19:02:18.241Z,53.20
2023-02-17T19:04:47.369Z,60.00
2023-02-17T19:07:16.412Z,51.97
2023-02-17T19:09:45.249Z,49.47
2023-02-17T19:12:14.614Z,46.77
2023-02-17T19:14:44.336Z,45.87
2023-02-17T19:17:14.082Z,46.70
2023-02-17T19:19:46.114Z,52.77
2023-02-17T19:22:15.117Z,74.20
2023-02-17T19:24:44.703Z,90.30
2023-02-17T19:27:14.325Z,101.53
2023-02-17T19:29:43.272Z,113.23
2023-02-17T19:32:12.392Z,110.87
2023-02-17T19:34:43.956Z,111.33
2023-02-17T19:37:13.287Z,116.23
2023-02-17T19:39:42.958Z,122.87
2023-02-17T19:42:16.067Z,128.73
2023-02-17T19:44:45.630Z,139.03
2023-02-17T19:47:14.783Z,136.90
2023-02-17T19:49:45.399Z,131.40
2023-02-17T19:52:15.645Z,133.03
2023-02-17T19:54:45.516Z,122.37
2023-02-17T19:57:17.993Z,124.13
2023-02-17T19:59:47.580Z,118.47
2023-02-17T20:02:19.032Z,108.87
2023-02-17T20:05:08.782Z,114.30
2023-02-17T20:07:37.752Z,102.23
2023-02-17T20:10:10.922Z,96.40
2023-02-17T20:12:42.889Z,93.10
2023-02-17T20:15:12.420Z,88.60
2023-02-17T20:17:41.328Z,79.33
2023-02-17T20:20:15.127Z,78.87
2023-02-17T20:22:44.830Z,75.43
2023-02-17T20:25:13.865Z,76.20
2023-02-17T20:27:42.701Z,65.87
2023-02-17T20:30:12.694Z,60.80
2023-02-17T20:32:42.466Z,60.60
2023-02-17T20:35:16.215Z,64.67
2023-02-17T20:37:45.426Z,60.67
2023-02-17T20:40:15.012Z,64.17
2023-02-17T20:42:44.133Z,71.63
2023-02-17T20:45:13.668Z,76.67
2023-02-17T20:47:42.548Z,81.53
2023-02-17T20:50:18.665Z,83.57
2023-02-17T20:52:47.824Z,92.40
2023-02-17T20:55:18.124Z,89.37
2023-02-17T20:57:52.721Z,84.43
2023-02-17T21:00:24.822Z,84.17
2023-02-17T21:02:54.174Z,80.57
2023-02-17T21:05:27.987Z,84.30
2023-02-17T21:08:00.886Z,85.63
2023-02-17T21:10:34.875Z,84.03
2023-02-17T21:13:06.354Z,82.50
2023-02-17T21:15:36.518Z,73.63
2023-02-17T21:18:06.009Z,75.67
2023-02-17T21:20:36.499Z,76.50
2023-02-17T21:23:07.082Z,77.53
2023-02-17T21:25:37.124Z,76.40
2023-02-17T21:28:07.637Z,69.37
2023-02-17T21:30:36.876Z,70.33
2023-02-17T21:33:07.186Z,68.73
2023-02-17T21:35:39.979Z,64.80
2023-02-17T21:38:10.460Z,65.47
2023-02-17T21:40:39.977Z,65.80
2023-02-17T21:43:40.332Z,67.30
2023-02-17T21:46:11.150Z,67.97
2023-02-17T21:48:44.357Z,71.37
2023-02-17T21:51:16.365Z,63.80
2023-02-17T21:53:46.990Z,58.70
2023-02-17T21:56:16.925Z,61.57
2023-02-17T21:58:48.822Z,62.73
2023-02-17T22:01:19.300Z,62.40
2023-02-17T22:03:48.242Z,64.90
2023-02-17T22:06:20.963Z,64.30
2023-02-17T22:08:50.447Z,56.33
2023-02-17T22:11:20.627Z,57.27
2023-02-17T22:13:49.894Z,51.17
2023-02-17T22:16:19.415Z,51.92
2023-02-17T22:18:48.224Z,52.45
2023-02-17T22:21:19.843Z,77.00
2023-02-17T22:23:49.219Z,63.97
2023-02-17T22:26:19.998Z,62.60
2023-02-17T22:28:49.083Z,78.47
2023-02-17T22:31:20.555Z,69.90
2023-02-17T22:34:10.091Z,70.40
2023-02-17T22:36:40.707Z,70.28
2023-02-17T22:39:10.535Z,68.68
2023-02-17T22:41:41.309Z,69.55
2023-02-17T22:44:10.618Z,69.35
2023-02-17T22:46:39.715Z,68.82
2023-02-17T22:49:08.790Z,76.28
2023-02-17T22:51:41.667Z,78.30
2023-02-17T22:54:11.118Z,74.70
2023-02-17T22:56:42.906Z,73.32
2023-02-17T22:59:11.837Z,77.70
2023-02-17T23:01:41.051Z,70.45
2023-02-17T23:04:14.071Z,65.78
2023-02-17T23:06:45.905Z,58.75
2023-02-17T23:09:33.170Z,56.15
2023-02-17T23:12:02.099Z,59.85
2023-02-17T23:14:34.681Z,57.63
2023-02-17T23:17:06.244Z,57.60
2023-02-17T23:19:35.914Z,62.00
2023-02-17T23:22:08.452Z,60.67
2023-02-17T23:24:37.276Z,58.80
2023-02-17T23:27:06.856Z,54.65
2023-02-17T23:29:38.138Z,54.65
2023-02-17T23:32:07.913Z,55.65
2023-02-17T23:34:37.099Z,55.42
2023-02-17T23:37:07.566Z,53.63
2023-02-17T23:39:39.120Z,54.67
2023-02-17T23:42:08.284Z,56.40
2023-02-17T23:44:37.759Z,53.70
2023-02-17T23:47:08.524Z,54.40
2023-02-17T23:49:38.191Z,55.13
2023-02-17T23:52:08.732Z,54.80
2023-02-17T23:54:39.600Z,54.15
2023-02-17T23:57:10.387Z,54.03
2023-02-17T23:59:39.997Z,52.88
